METAR Data
IDs: Format: Raw Decoded Include TAF

Data at: 1019 UTC 26 Sep 2018

KTVI 260955Z AUTO 00000KT 10SM CLR 22/22 A3009 RMK AO2 LTG DSNT W
KTVI 260935Z AUTO 00000KT 10SM CLR 22/22 A3009 RMK AO2
KTVI 260915Z AUTO 00000KT 10SM CLR 22/22 A3009 RMK AO2 LTG DSNT SW
KTVI 260855Z AUTO 00000KT 7SM CLR 22/22 A3010 RMK AO2
KTVI 260835Z AUTO 00000KT 7SM CLR 22/22 A3010 RMK AO2
KTVI 260815Z AUTO 00000KT 7SM SCT065 22/22 A3010 RMK AO2
KTVI 260755Z AUTO 00000KT 7SM SCT065 22/22 A3011 RMK AO2
KTVI 260735Z AUTO 00000KT 7SM SCT029 22/22 A3011 RMK AO2
KTVI 260715Z AUTO 00000KT 10SM BKN029 BKN044 22/22 A3012 RMK AO2 LTG DSNT NW
KTVI 260655Z AUTO 00000KT 10SM CLR 22/22 A3012 RMK AO2 LTG DSNT W
KTVI 260635Z AUTO 00000KT 10SM SCT039 SCT049 SCT070 22/22 A3012 RMK AO2 LTG DSNT S
KTVI 260615Z AUTO 00000KT 10SM SCT029 BKN039 BKN048 22/22 A3012 RMK AO2
KTVI 260555Z AUTO 00000KT 10SM BKN029 BKN039 BKN044 23/22 A3013 RMK AO2
KTVI 260535Z AUTO 00000KT 10SM BKN029 OVC037 22/22 A3013 RMK AO2
KTVI 260515Z AUTO 00000KT 10SM BKN031 OVC039 22/22 A3013 RMK AO2
KTVI 260455Z AUTO 00000KT 7SM SCT031 BKN048 22/22 A3013 RMK AO2 LTG DSNT S
KTVI 260435Z AUTO 33003KT 10SM SCT048 SCT050 22/22 A3013 RMK AO2
KTVI 260415Z AUTO 00000KT 10SM SCT050 22/22 A3014 RMK AO2
KTVI 260355Z AUTO 00000KT 10SM SCT050 22/22 A3014 RMK AO2
KTVI 260335Z AUTO 00000KT 10SM SCT050 22/22 A3013 RMK AO2
KTVI 260315Z AUTO 00000KT 10SM CLR 23/22 A3013 RMK AO2
KTVI 260255Z AUTO 13003KT 10SM SCT050 23/22 A3013 RMK AO2
KTVI 260235Z AUTO 00000KT 10SM SCT048 SCT055 23/22 A3012 RMK AO2
KTVI 260215Z AUTO 00000KT 10SM SCT048 23/22 A3012 RMK AO2
KTVI 260155Z AUTO 00000KT 10SM CLR 23/22 A3011 RMK AO2
KTVI 260135Z AUTO 00000KT 10SM CLR 23/22 A3011 RMK AO2
KTVI 260115Z AUTO 00000KT 10SM CLR 23/22 A3011 RMK AO2
KTVI 260055Z AUTO 00000KT 10SM CLR 23/22 A3009 RMK AO2
KTVI 260035Z AUTO 00000KT 10SM CLR 23/22 A3009 RMK AO2
KTVI 260015Z AUTO 00000KT 10SM CLR 23/22 A3009 RMK AO2
KTVI 252355Z AUTO 00000KT 10SM CLR 23/22 A3008 RMK AO2
KTVI 252335Z AUTO 00000KT 10SM CLR 24/22 A3008 RMK AO2
KTVI 252315Z AUTO 00000KT 10SM SCT060 24/22 A3008 RMK AO2
KTVI 252255Z AUTO 29005KT 10SM SCT050 25/22 A3008 RMK AO2
KTVI 252235Z AUTO 30008KT 10SM TS SCT055 25/22 A3008 RMK AO2 LTG DSNT NW
KTVI 252215Z AUTO 31003KT 10SM SCT085 25/23 A3007 RMK AO2 LTG DSNT N AND NW
KTVI 252155Z AUTO 36006KT 7SM -RA SCT027 BKN050 OVC080 25/23 A3006 RMK AO2 LTG DSNT NW
KTVI 252135Z AUTO 15010KT 7SM +RA BKN049 BKN060 30/22 A3007 RMK AO2
KTVI 252115Z AUTO 14003KT 10SM SCT100 31/21 A3006 RMK AO2
KTVI 252055Z AUTO 15006KT 10SM SCT046 SCT060 32/21 A3006 RMK AO2 LTG DSNT W AND NW
KTVI 252035Z AUTO 14006KT 10SM SCT070 SCT080 32/21 A3007 RMK AO2 LTG DSNT NW
KTVI 252015Z AUTO 11005KT 10SM VCTS SCT070 SCT080 BKN085 32/21 A3007 RMK AO2 LTG DSNT W AND NW
KTVI 251955Z AUTO 12005KT 10SM CLR 32/21 A3007 RMK AO2 LTG DSNT W AND NW
KTVI 251935Z AUTO 12003KT 7SM SCT095 33/22 A3007 RMK AO2 LTG DSNT SW AND W
KTVI 251915Z AUTO 16006KT 10SM SCT043 SCT050 SCT060 32/22 A3009 RMK AO2 LTG DSNT W
KTVI 251855Z AUTO 12006KT 10SM SCT043 SCT049 32/21 A3009 RMK AO2 LTG DSNT SW AND W
KTVI 251835Z AUTO 12004KT 10SM SCT046 32/21 A3010 RMK AO2 LTG DSNT SW AND W
KTVI 251815Z AUTO 12006KT 10SM SCT046 32/21 A3011 RMK AO2
KTVI 251755Z AUTO 19004KT 10SM CLR 32/21 A3012 RMK AO2 LTG DSNT SW
KTVI 251735Z AUTO 17004KT 10SM SCT037 32/20 A3013 RMK AO2 LTG DSNT SW
KTVI 251715Z AUTO 12004KT 10SM SCT037 31/21 A3014 RMK AO2 LTG DSNT SW
KTVI 251655Z AUTO 15004KT 7SM SCT035 31/22 A3014 RMK AO2 LTG DSNT SW
KTVI 251635Z AUTO 12005KT 10SM SCT032 30/22 A3015 RMK AO2 LTG DSNT SW
KTVI 251615Z AUTO 16007KT 140V210 10SM SCT030 SCT036 30/23 A3015 RMK AO2 LTG DSNT SW
KTVI 251555Z AUTO 15005KT 10SM SCT022 BKN029 30/22 A3015 RMK AO2
KTVI 251535Z AUTO 13004KT 10SM BKN022 BKN030 28/23 A3015 RMK AO2
KTVI 251515Z AUTO 13004KT 10SM BKN019 BKN024 28/23 A3016 RMK AO2
KTVI 251455Z AUTO 12006KT 10SM BKN015 27/23 A3016 RMK AO2 LTG DSNT W
KTVI 251435Z AUTO 18005KT 10SM BKN013 27/23 A3016 RMK AO2
KTVI 251415Z AUTO 16006KT 10SM BKN009 27/23 A3016 RMK AO2
KTVI 251355Z AUTO 14004KT 10SM BKN009 27/23 A3016 RMK AO2
KTVI 251335Z AUTO 11004KT 10SM BKN007 26/23 A3015 RMK AO2 LTG DSNT W
KTVI 251315Z AUTO 10003KT 10SM BKN005 BKN012 25/23 A3015 RMK AO2 LTG DSNT SW
KTVI 251255Z AUTO 09004KT 10SM BKN005 BKN012 24/23 A3015 RMK AO2
KTVI 251235Z AUTO 10003KT 10SM SCT005 SCT010 BKN014 23/23 A3014 RMK AO2
KTVI 251215Z AUTO 09003KT 7SM SCT003 SCT008 BKN014 23/22 A3014 RMK AO2
KTVI 251155Z AUTO 00000KT 7SM SCT016 22/22 A3014 RMK AO2
KTVI 251135Z AUTO 00000KT 10SM SCT016 22/22 A3013 RMK AO2
KTVI 251115Z AUTO 00000KT 2 1/2SM BR SCT014 BKN019 22/21 A3012 RMK AO2 VIS 3/4V5
KTVI 251055Z AUTO 00000KT 7SM CLR 22/22 A3012 RMK AO2
KTVI 251035Z AUTO 00000KT 7SM SCT004 SCT008 22/22 A3011 RMK AO2
KTVI 251015Z AUTO 00000KT 7SM BKN004 BKN008 22/22 A3011 RMK AO2
KTVI 250955Z AUTO 00000KT 10SM SCT004 SCT020 22/22 A3010 RMK AO2
KTVI 250935Z AUTO 00000KT 10SM SCT020 22/22 A3010 RMK AO2
KTVI 250915Z AUTO 12003KT 10SM CLR 22/22 A3010 RMK AO2 LTG DSNT W
KTVI 250855Z AUTO 00000KT 10SM CLR 22/22 A3010 RMK AO2
KTVI 250835Z AUTO 00000KT 10SM CLR 23/22 A3009 RMK AO2
KTVI 250815Z AUTO 00000KT 10SM CLR 23/22 A3010 RMK AO2
KTVI 250755Z AUTO 00000KT 10SM CLR 23/22 A3009 RMK AO2
KTVI 250735Z AUTO 12003KT 10SM CLR 23/22 A3009 RMK AO2
KTVI 250715Z AUTO 11004KT 10SM CLR 23/22 A3010 RMK AO2
KTVI 250655Z AUTO 10003KT 10SM CLR 23/22 A3010 RMK AO2
KTVI 250635Z AUTO 10003KT 10SM SCT050 23/22 A3011 RMK AO2
KTVI 250615Z AUTO 00000KT 10SM SCT050 23/22 A3011 RMK AO2
KTVI 250555Z AUTO 11003KT 10SM SCT050 23/23 A3011 RMK AO2
KTVI 250535Z AUTO 11004KT 10SM CLR 23/23 A3011 RMK AO2
KTVI 250515Z AUTO 13003KT 10SM CLR 24/23 A3012 RMK AO2
KTVI 250455Z AUTO 11004KT 10SM CLR 24/23 A3012 RMK AO2
KTVI 250435Z AUTO 14003KT 10SM CLR 24/23 A3012 RMK AO2
KTVI 250415Z AUTO 13004KT 10SM CLR 24/23 A3011 RMK AO2
KTVI 250355Z AUTO 14003KT 10SM CLR 24/23 A3012 RMK AO2
KTVI 250335Z AUTO 14004KT 10SM CLR 24/23 A3011 RMK AO2
KTVI 250315Z AUTO 12003KT 10SM CLR 24/23 A3011 RMK AO2
KTVI 250255Z AUTO 13004KT 10SM SCT046 24/23 A3010 RMK AO2
KTVI 250235Z AUTO 13004KT 10SM SCT037 BKN044 25/22 A3011 RMK AO2
KTVI 250215Z AUTO 00000KT 10SM BKN041 BKN046 BKN065 25/23 A3010 RMK AO2
KTVI 250155Z AUTO 12003KT 10SM SCT037 25/22 A3010 RMK AO2
KTVI 250135Z AUTO 00000KT 10SM SCT090 25/22 A3009 RMK AO2
KTVI 250115Z AUTO 11003KT 10SM BKN080 BKN090 25/22 A3009 RMK AO2
KTVI 250055Z AUTO 20004KT 10SM SCT065 BKN085 OVC090 26/22 A3008 RMK AO2
KTVI 250035Z AUTO 15003KT 10SM BKN065 26/21 A3007 RMK AO2 LTG DSNT W
KTVI 250015Z AUTO 14007KT 10SM OVC065 27/22 A3007 RMK AO2 LTG DSNT N
KTVI 242355Z AUTO 14010KT 10SM SCT050 OVC065 27/22 A3007 RMK AO2
KTVI 242335Z AUTO 12005KT 10SM -RA BKN050 OVC065 27/22 A3006 RMK AO2
KTVI 242315Z AUTO 14009KT 10SM SCT055 OVC065 28/22 A3005 RMK AO2
KTVI 242255Z AUTO 14010KT 10SM OVC065 29/22 A3004 RMK AO2 LTG DSNT W
KTVI 242235Z AUTO 11005KT 10SM BKN065 32/20 A3003 RMK AO2 LTG DSNT S